createdAt,value
2023-10-16T00:00:31.803Z,100.00
2023-10-16T00:03:01.932Z,100.00
2023-10-16T00:05:33.743Z,100.00
2023-10-16T00:08:06.884Z,100.00
2023-10-16T00:10:35.296Z,100.00
2023-10-16T00:13:06.607Z,100.00
2023-10-16T00:15:42.252Z,100.00
2023-10-16T00:18:14.689Z,100.00
2023-10-16T00:20:43.440Z,100.00
2023-10-16T00:23:12.552Z,100.00
2023-10-16T00:25:41.005Z,100.00
2023-10-16T00:28:09.636Z,100.00
2023-10-16T00:30:41.771Z,100.00
2023-10-16T00:33:13.114Z,100.00
2023-10-16T00:35:42.627Z,100.00
2023-10-16T00:38:13.970Z,100.00
2023-10-16T00:40:45.443Z,100.00
2023-10-16T00:43:18.633Z,100.00
2023-10-16T00:45:51.165Z,100.00
2023-10-16T00:48:20.542Z,100.00
2023-10-16T00:50:49.688Z,100.00
2023-10-16T00:53:21.623Z,100.00
2023-10-16T00:55:50.576Z,100.00
2023-10-16T00:58:18.456Z,100.00
2023-10-16T01:00:48.820Z,100.00
2023-10-16T01:03:18.533Z,100.00
2023-10-16T01:05:52.293Z,100.00
2023-10-16T01:08:20.557Z,100.00
2023-10-16T01:10:49.812Z,100.00
2023-10-16T01:13:18.202Z,100.00
2023-10-16T01:15:47.976Z,100.00
2023-10-16T01:18:16.832Z,100.00
2023-10-16T01:20:50.045Z,100.00
2023-10-16T01:23:20.753Z,100.00
2023-10-16T01:25:49.843Z,100.00
2023-10-16T01:28:19.014Z,100.00
2023-10-16T01:30:48.515Z,100.00
2023-10-16T01:33:17.986Z,100.00
2023-10-16T01:35:46.956Z,100.00
2023-10-16T01:38:17.965Z,100.00
2023-10-16T01:41:04.802Z,100.00
2023-10-16T01:43:33.819Z,100.00
2023-10-16T01:46:02.797Z,100.00
2023-10-16T01:48:30.886Z,100.00
2023-10-16T01:50:58.709Z,100.00
2023-10-16T01:53:28.623Z,100.00
2023-10-16T01:55:57.710Z,100.00
2023-10-16T01:58:26.053Z,100.00
2023-10-16T02:00:56.093Z,100.00
2023-10-16T02:03:27.103Z,100.00
2023-10-16T02:05:55.799Z,100.00
2023-10-16T02:08:24.430Z,100.00
2023-10-16T02:10:53.624Z,100.00
2023-10-16T02:13:23.002Z,100.00
2023-10-16T02:15:50.873Z,100.00
2023-10-16T02:18:24.225Z,100.00
2023-10-16T02:20:53.746Z,100.00
2023-10-16T02:23:21.764Z,100.00
2023-10-16T02:25:49.486Z,100.00
2023-10-16T02:28:20.987Z,100.00
2023-10-16T02:30:51.486Z,100.00
2023-10-16T02:33:24.236Z,100.00
2023-10-16T02:35:54.592Z,100.00
2023-10-16T02:38:30.187Z,100.00
2023-10-16T02:41:04.281Z,100.00
2023-10-16T02:43:32.989Z,100.00
2023-10-16T02:46:03.431Z,100.00
2023-10-16T02:48:31.586Z,100.00
2023-10-16T02:51:00.197Z,100.00
2023-10-16T02:53:30.296Z,100.00
2023-10-16T02:56:00.130Z,100.00
2023-10-16T02:58:28.334Z,100.00
2023-10-16T03:00:57.955Z,100.00
2023-10-16T03:03:28.670Z,100.00
2023-10-16T03:05:59.117Z,100.00
2023-10-16T03:08:31.471Z,100.00
2023-10-16T03:11:00.521Z,100.00
2023-10-16T03:13:28.209Z,100.00
2023-10-16T03:16:06.756Z,100.00
2023-10-16T03:18:36.623Z,100.00
2023-10-16T03:21:27.722Z,100.00
2023-10-16T03:23:56.043Z,100.00
2023-10-16T03:26:26.532Z,100.00
2023-10-16T03:28:55.210Z,100.00
2023-10-16T03:31:23.508Z,100.00
2023-10-16T03:33:56.106Z,100.00
2023-10-16T03:36:24.762Z,100.00
2023-10-16T03:38:52.860Z,100.00
2023-10-16T03:41:28.976Z,100.00
2023-10-16T03:43:59.885Z,100.00
2023-10-16T03:46:28.026Z,100.00
2023-10-16T03:48:58.908Z,100.00
2023-10-16T03:51:27.480Z,100.00
2023-10-16T03:53:57.771Z,100.00
2023-10-16T03:56:26.274Z,100.00
2023-10-16T03:58:54.721Z,100.00
2023-10-16T04:01:25.250Z,100.00
2023-10-16T04:03:57.611Z,100.00
2023-10-16T04:06:28.886Z,100.00
2023-10-16T04:08:59.319Z,100.00
2023-10-16T04:11:27.090Z,100.00
2023-10-16T04:13:55.171Z,100.00
2023-10-16T04:16:38.122Z,100.00
2023-10-16T04:19:37.159Z,100.00
2023-10-16T04:22:09.901Z,100.00
2023-10-16T04:24:46.859Z,100.00
2023-10-16T04:27:35.165Z,100.00
2023-10-16T04:30:20.818Z,100.00
2023-10-16T04:33:06.456Z,100.00
2023-10-16T04:35:48.147Z,100.00
2023-10-16T04:38:32.377Z,100.00
2023-10-16T04:41:32.339Z,100.00
2023-10-16T04:44:14.113Z,100.00
2023-10-16T04:46:56.934Z,100.00
2023-10-16T04:49:29.670Z,100.00
2023-10-16T04:52:03.300Z,100.00
2023-10-16T04:54:59.036Z,100.00
2023-10-16T04:57:44.417Z,100.00
2023-10-16T05:00:29.476Z,100.00
2023-10-16T05:03:16.674Z,100.00
2023-10-16T05:06:04.413Z,100.00
2023-10-16T05:09:00.220Z,100.00
2023-10-16T05:11:34.549Z,100.00
2023-10-16T05:14:23.395Z,100.00
2023-10-16T05:17:08.116Z,100.00
2023-10-16T05:19:47.900Z,100.00
2023-10-16T05:22:33.550Z,100.00
2023-10-16T05:25:18.820Z,100.00
2023-10-16T05:28:05.432Z,100.00
2023-10-16T05:30:50.586Z,100.00
2023-10-16T05:33:36.124Z,100.00
2023-10-16T05:36:21.596Z,100.00
2023-10-16T05:39:15.329Z,100.00
2023-10-16T05:42:00.749Z,100.00
2023-10-16T05:44:47.097Z,100.00
2023-10-16T05:47:43.866Z,100.00
2023-10-16T05:50:29.580Z,100.00
2023-10-16T05:53:15.022Z,100.00
2023-10-16T05:56:00.466Z,100.00
2023-10-16T05:58:46.128Z,100.00
2023-10-16T06:01:32.698Z,100.00
2023-10-16T06:04:32.846Z,100.00
2023-10-16T06:07:18.244Z,100.00
2023-10-16T06:10:03.243Z,100.00
2023-10-16T06:12:48.499Z,100.00
2023-10-16T06:15:22.110Z,100.00
2023-10-16T06:17:53.327Z,100.00
2023-10-16T06:20:23.182Z,100.00
2023-10-16T06:22:52.626Z,100.00
2023-10-16T06:25:29.873Z,100.00
2023-10-16T06:27:58.089Z,100.00
2023-10-16T06:30:26.110Z,100.00
2023-10-16T06:32:55.754Z,100.00
2023-10-16T06:35:23.581Z,100.00
2023-10-16T06:37:53.759Z,100.00
2023-10-16T06:40:25.798Z,100.00
2023-10-16T06:43:10.385Z,100.00
2023-10-16T06:45:52.653Z,100.00
2023-10-16T06:48:22.060Z,100.00
2023-10-16T06:50:55.340Z,100.00
2023-10-16T06:53:24.164Z,100.00
2023-10-16T06:55:52.787Z,100.00
2023-10-16T06:58:22.500Z,100.00
2023-10-16T07:00:51.364Z,100.00
2023-10-16T07:03:19.159Z,100.00
2023-10-16T07:05:49.453Z,100.00
2023-10-16T07:08:21.355Z,100.00
2023-10-16T07:10:54.747Z,100.00
2023-10-16T07:13:31.140Z,100.00
2023-10-16T07:16:01.174Z,100.00
2023-10-16T07:18:31.036Z,100.00
2023-10-16T07:21:08.611Z,100.00
2023-10-16T07:23:38.307Z,100.00
2023-10-16T07:26:08.055Z,100.00
2023-10-16T07:28:35.891Z,100.00
2023-10-16T07:31:04.338Z,100.00
2023-10-16T07:33:33.040Z,100.00
2023-10-16T07:36:02.707Z,100.00
2023-10-16T07:38:30.998Z,100.00
2023-10-16T07:41:00.469Z,100.00
2023-10-16T07:43:30.342Z,100.00
2023-10-16T07:46:17.320Z,100.00
2023-10-16T07:48:47.777Z,100.00
2023-10-16T07:51:17.486Z,100.00
2023-10-16T07:53:45.606Z,100.00
2023-10-16T07:56:20.574Z,100.00
2023-10-16T07:58:50.191Z,100.00
2023-10-16T08:01:39.992Z,100.00
2023-10-16T08:04:08.502Z,100.00
2023-10-16T08:06:40.487Z,100.00
2023-10-16T08:09:26.204Z,100.00
2023-10-16T08:11:59.311Z,100.00
2023-10-16T08:14:29.076Z,100.00
2023-10-16T08:17:05.576Z,100.00
2023-10-16T08:19:35.471Z,100.00
2023-10-16T08:22:08.341Z,100.00
2023-10-16T08:24:44.304Z,100.00
2023-10-16T08:27:23.310Z,100.00
2023-10-16T08:29:55.345Z,100.00
2023-10-16T08:32:45.964Z,100.00
2023-10-16T08:35:18.642Z,100.00
2023-10-16T08:37:57.826Z,100.00
2023-10-16T08:40:34.114Z,100.00
2023-10-16T08:43:03.817Z,100.00
2023-10-16T08:45:33.681Z,100.00
2023-10-16T08:48:06.429Z,99.85
2023-10-16T08:50:42.747Z,99.07
2023-10-16T08:53:31.804Z,99.31
2023-10-16T08:56:04.224Z,98.60
2023-10-16T08:58:39.369Z,98.40
2023-10-16T09:01:09.793Z,96.81
2023-10-16T09:03:41.791Z,95.72
2023-10-16T09:06:09.714Z,96.23
2023-10-16T09:08:38.840Z,96.03
2023-10-16T09:11:09.111Z,96.87
2023-10-16T09:13:41.228Z,95.94
2023-10-16T09:16:14.891Z,95.78
2023-10-16T09:18:43.908Z,94.25
2023-10-16T09:21:24.263Z,93.81
2023-10-16T09:23:59.589Z,93.54
2023-10-16T09:26:33.454Z,91.46
2023-10-16T09:29:06.308Z,92.79
2023-10-16T09:31:34.399Z,93.51
2023-10-16T09:34:02.422Z,93.00
2023-10-16T09:36:37.373Z,93.19
2023-10-16T09:39:18.268Z,92.22
2023-10-16T09:41:48.355Z,92.18
2023-10-16T09:44:24.484Z,92.64
2023-10-16T09:46:54.729Z,92.58
2023-10-16T09:49:24.869Z,91.38
2023-10-16T09:52:06.642Z,91.83
2023-10-16T09:54:37.739Z,92.39
2023-10-16T09:57:09.618Z,92.52
2023-10-16T09:59:40.890Z,91.14
2023-10-16T10:02:17.930Z,90.70
2023-10-16T10:04:54.925Z,89.74
2023-10-16T10:07:35.587Z,90.30
2023-10-16T10:10:20.693Z,88.22
2023-10-16T10:12:52.333Z,88.43
2023-10-16T10:15:24.001Z,88.01
2023-10-16T10:17:55.381Z,86.75
2023-10-16T10:20:27.261Z,87.67
2023-10-16T10:23:00.226Z,87.22
2023-10-16T10:25:38.834Z,85.05
2023-10-16T10:28:17.088Z,84.76
2023-10-16T10:30:46.569Z,83.07
2023-10-16T10:33:15.587Z,83.33
2023-10-16T10:35:44.445Z,83.09
2023-10-16T10:38:22.695Z,82.15
2023-10-16T10:41:17.006Z,79.76
2023-10-16T10:43:49.268Z,79.53
2023-10-16T10:46:25.992Z,77.98
2023-10-16T10:48:55.655Z,79.53
2023-10-16T10:51:24.136Z,79.80
2023-10-16T10:53:56.199Z,79.70
2023-10-16T10:56:31.147Z,80.52
2023-10-16T10:59:05.617Z,79.69
2023-10-16T11:01:37.758Z,80.39
2023-10-16T11:04:10.421Z,80.08
2023-10-16T11:06:43.729Z,80.08
2023-10-16T11:09:19.519Z,79.61
2023-10-16T11:11:52.088Z,78.54
2023-10-16T11:14:34.642Z,77.28
2023-10-16T11:17:06.544Z,78.75
2023-10-16T11:19:46.272Z,76.86
2023-10-16T11:22:20.154Z,78.36
2023-10-16T11:24:49.527Z,78.96
2023-10-16T11:27:18.789Z,78.69
2023-10-16T11:29:47.246Z,78.33
2023-10-16T11:32:16.200Z,79.56
2023-10-16T11:34:45.949Z,80.09
2023-10-16T11:37:14.784Z,81.44
2023-10-16T11:39:45.347Z,82.00
2023-10-16T11:42:14.332Z,82.75
2023-10-16T11:44:44.013Z,83.40
2023-10-16T11:47:18.954Z,83.31
2023-10-16T11:49:54.375Z,81.89
2023-10-16T11:52:23.718Z,80.59
2023-10-16T11:54:57.639Z,80.07
2023-10-16T11:57:25.937Z,79.69
2023-10-16T11:59:56.814Z,78.32
2023-10-16T12:05:01.964Z,78.17
2023-10-16T12:07:29.742Z,78.27
2023-10-16T12:10:01.792Z,78.52
2023-10-16T12:12:30.021Z,76.58
2023-10-16T12:14:59.067Z,76.23
2023-10-16T12:17:29.364Z,75.71
2023-10-16T12:19:58.888Z,75.25
2023-10-16T12:22:26.730Z,74.28
2023-10-16T12:24:54.613Z,73.59
2023-10-16T12:27:22.400Z,73.01
2023-10-16T12:29:50.251Z,72.09
2023-10-16T12:32:19.842Z,72.83
2023-10-16T12:34:48.278Z,71.80
2023-10-16T12:37:16.007Z,71.98
2023-10-16T12:39:53.996Z,72.32
2023-10-16T12:42:22.098Z,71.37
2023-10-16T12:44:49.964Z,71.34
2023-10-16T12:47:32.605Z,70.80
2023-10-16T12:50:08.794Z,71.99
2023-10-16T12:52:36.784Z,70.88
2023-10-16T12:55:10.175Z,71.80
2023-10-16T12:57:38.032Z,71.09
2023-10-16T13:00:16.191Z,70.71
2023-10-16T13:02:47.124Z,71.37
2023-10-16T13:05:15.450Z,71.05
2023-10-16T13:07:47.082Z,71.06
2023-10-16T13:10:21.263Z,71.13
2023-10-16T13:12:49.712Z,71.00
2023-10-16T13:15:25.808Z,71.03
2023-10-16T13:17:55.419Z,70.98
2023-10-16T13:20:28.502Z,71.24
2023-10-16T13:22:57.900Z,70.77
2023-10-16T13:25:32.083Z,70.38
2023-10-16T13:28:00.697Z,71.48
2023-10-16T13:30:32.598Z,71.68
2023-10-16T13:33:08.128Z,72.11
2023-10-16T13:35:40.804Z,71.89
2023-10-16T13:38:10.100Z,71.64
2023-10-16T13:40:37.976Z,71.41
2023-10-16T13:43:11.694Z,71.25
2023-10-16T13:45:40.399Z,69.47
2023-10-16T13:48:11.189Z,69.80
2023-10-16T13:50:41.619Z,69.88
2023-10-16T13:53:11.823Z,69.79
2023-10-16T13:55:39.613Z,69.99
2023-10-16T13:58:07.719Z,69.48
2023-10-16T14:00:37.657Z,68.69
2023-10-16T14:03:08.871Z,68.33
2023-10-16T14:05:42.347Z,67.31
2023-10-16T14:08:12.036Z,68.71
2023-10-16T14:10:46.973Z,68.74
2023-10-16T14:13:20.943Z,67.90
2023-10-16T14:15:49.504Z,68.92
2023-10-16T14:18:22.077Z,69.04
2023-10-16T14:20:51.255Z,68.95
2023-10-16T14:23:20.634Z,69.43
2023-10-16T14:25:50.198Z,69.25
2023-10-16T14:28:26.837Z,69.07
2023-10-16T14:30:57.422Z,68.79
2023-10-16T14:33:26.723Z,69.43
2023-10-16T14:35:57.529Z,68.92
2023-10-16T14:38:25.551Z,69.11
2023-10-16T14:40:56.609Z,69.45
2023-10-16T14:43:24.796Z,70.22
2023-10-16T14:45:55.119Z,70.49
2023-10-16T14:48:24.415Z,71.28
2023-10-16T14:50:53.988Z,71.81
2023-10-16T14:53:26.219Z,71.27
2023-10-16T14:55:55.007Z,71.45
2023-10-16T14:58:35.862Z,71.60
2023-10-16T15:01:16.718Z,71.92
2023-10-16T15:03:45.377Z,71.89
2023-10-16T15:06:14.160Z,72.50
2023-10-16T15:08:44.710Z,73.44
2023-10-16T15:11:12.938Z,74.15
2023-10-16T15:13:43.566Z,74.53
2023-10-16T15:16:12.012Z,75.19
2023-10-16T15:18:40.667Z,75.73
2023-10-16T15:21:09.003Z,76.14
2023-10-16T15:23:37.678Z,77.01
2023-10-16T15:26:08.066Z,77.64
2023-10-16T15:28:46.033Z,78.55
2023-10-16T15:31:17.115Z,79.14
2023-10-16T15:36:33.525Z,80.79
2023-10-16T15:39:01.624Z,81.31
2023-10-16T15:41:31.087Z,81.79
2023-10-16T15:44:00.398Z,82.79
2023-10-16T15:46:32.299Z,83.91
2023-10-16T15:49:00.987Z,83.69
2023-10-16T15:51:31.641Z,83.98
2023-10-16T15:54:00.563Z,84.71
2023-10-16T15:56:31.009Z,85.54
2023-10-16T15:58:58.804Z,86.35
2023-10-16T16:01:27.661Z,86.01
2023-10-16T16:06:46.410Z,87.25
2023-10-16T16:09:14.943Z,87.90
2023-10-16T16:11:46.409Z,87.74
2023-10-16T16:14:19.219Z,87.94
2023-10-16T16:16:52.333Z,88.53
2023-10-16T16:19:22.194Z,89.10
2023-10-16T16:21:50.871Z,89.48
2023-10-16T16:24:18.706Z,90.00
2023-10-16T16:26:47.952Z,90.96
2023-10-16T16:29:15.741Z,91.38
2023-10-16T16:31:44.520Z,91.22
2023-10-16T16:34:12.388Z,92.07
2023-10-16T16:36:41.593Z,91.79
2023-10-16T16:39:13.782Z,91.32
2023-10-16T16:41:41.849Z,92.25
2023-10-16T16:44:11.020Z,91.59
2023-10-16T16:46:38.911Z,91.10
2023-10-16T16:49:11.650Z,91.02
2023-10-16T16:51:40.153Z,91.21
2023-10-16T16:54:08.475Z,91.68
2023-10-16T16:56:38.524Z,91.19
2023-10-16T16:59:10.615Z,91.79
2023-10-16T17:01:42.825Z,92.02
2023-10-16T17:04:11.020Z,92.30
2023-10-16T17:06:39.295Z,94.17
2023-10-16T17:09:08.407Z,95.36
2023-10-16T17:11:36.128Z,95.28
2023-10-16T17:14:05.770Z,96.97
2023-10-16T17:16:34.054Z,97.44
2023-10-16T17:19:05.342Z,99.08
2023-10-16T17:21:34.449Z,100.00
2023-10-16T17:24:04.660Z,100.00
2023-10-16T17:26:33.801Z,100.00
2023-10-16T17:29:01.776Z,100.00
2023-10-16T17:31:29.582Z,100.00
2023-10-16T17:33:57.460Z,100.00
2023-10-16T17:36:26.682Z,100.00
2023-10-16T17:38:54.406Z,100.00
2023-10-16T17:41:22.723Z,100.00
2023-10-16T17:43:50.476Z,100.00
2023-10-16T17:46:18.381Z,100.00
2023-10-16T17:48:46.159Z,100.00
2023-10-16T17:51:14.145Z,100.00
2023-10-16T17:53:43.552Z,100.00
2023-10-16T17:56:14.133Z,100.00
2023-10-16T17:58:42.034Z,100.00
2023-10-16T18:01:13.945Z,100.00
2023-10-16T18:03:42.602Z,100.00
2023-10-16T18:06:13.066Z,100.00
2023-10-16T18:08:44.614Z,100.00
2023-10-16T18:11:15.862Z,100.00
2023-10-16T18:13:44.258Z,100.00
2023-10-16T18:16:12.392Z,100.00
2023-10-16T18:18:40.282Z,100.00
2023-10-16T18:21:08.076Z,100.00
2023-10-16T18:23:36.197Z,100.00
2023-10-16T18:26:05.019Z,100.00
2023-10-16T18:28:34.236Z,100.00
2023-10-16T18:31:04.192Z,100.00
2023-10-16T18:33:32.013Z,100.00
2023-10-16T18:36:02.978Z,100.00
2023-10-16T18:38:31.169Z,100.00
2023-10-16T18:41:00.476Z,100.00
2023-10-16T18:43:28.260Z,100.00
2023-10-16T18:45:57.609Z,100.00
2023-10-16T18:48:25.591Z,100.00
2023-10-16T18:50:53.550Z,100.00
2023-10-16T18:53:23.061Z,100.00
2023-10-16T18:55:52.342Z,100.00
2023-10-16T18:58:20.073Z,100.00
2023-10-16T19:00:48.015Z,100.00
2023-10-16T19:03:17.328Z,100.00
2023-10-16T19:05:45.660Z,100.00
2023-10-16T19:08:13.761Z,100.00
2023-10-16T19:10:41.465Z,100.00
2023-10-16T19:13:12.837Z,100.00
2023-10-16T19:15:40.913Z,100.00
2023-10-16T19:18:12.830Z,100.00
2023-10-16T19:20:42.193Z,100.00
2023-10-16T19:23:09.893Z,100.00
2023-10-16T19:25:39.033Z,100.00
2023-10-16T19:28:08.408Z,100.00
2023-10-16T19:30:36.219Z,100.00
2023-10-16T19:33:05.259Z,100.00
2023-10-16T19:35:36.572Z,100.00
2023-10-16T19:38:05.950Z,100.00
2023-10-16T19:40:33.706Z,100.00
2023-10-16T19:43:01.542Z,100.00
2023-10-16T19:45:32.096Z,100.00
2023-10-16T19:47:59.937Z,100.00
2023-10-16T19:50:28.352Z,100.00
2023-10-16T19:52:56.580Z,100.00
2023-10-16T19:55:25.725Z,100.00
2023-10-16T19:57:54.446Z,100.00
2023-10-16T20:00:26.035Z,100.00
2023-10-16T20:02:55.557Z,100.00
2023-10-16T20:05:25.240Z,100.00
2023-10-16T20:07:54.176Z,100.00
2023-10-16T20:10:21.940Z,100.00
2023-10-16T20:12:54.028Z,100.00
2023-10-16T20:15:22.174Z,100.00
2023-10-16T20:17:51.108Z,100.00
2023-10-16T20:20:24.190Z,100.00
2023-10-16T20:22:54.112Z,100.00
2023-10-16T20:25:22.586Z,100.00
2023-10-16T20:27:53.112Z,100.00
2023-10-16T20:30:21.182Z,100.00
2023-10-16T20:32:49.553Z,100.00
2023-10-16T20:35:18.217Z,100.00
2023-10-16T20:37:51.075Z,100.00
2023-10-16T20:40:21.315Z,100.00
2023-10-16T20:42:49.942Z,100.00
2023-10-16T20:45:20.411Z,100.00
2023-10-16T20:47:51.988Z,100.00
2023-10-16T20:50:24.159Z,100.00
2023-10-16T20:52:52.982Z,100.00
2023-10-16T20:55:22.451Z,100.00
2023-10-16T20:57:51.426Z,100.00
2023-10-16T21:00:26.408Z,100.00
2023-10-16T21:02:58.615Z,100.00
2023-10-16T21:05:27.472Z,100.00
2023-10-16T21:07:57.529Z,100.00
2023-10-16T21:10:26.672Z,100.00
2023-10-16T21:12:54.996Z,100.00
2023-10-16T21:15:25.627Z,100.00
2023-10-16T21:17:55.271Z,100.00
2023-10-16T21:20:23.141Z,100.00
2023-10-16T21:22:53.109Z,100.00
2023-10-16T21:25:25.136Z,100.00
2023-10-16T21:27:54.375Z,100.00
2023-10-16T21:30:24.066Z,100.00
2023-10-16T21:32:54.476Z,100.00
2023-10-16T21:35:24.243Z,100.00
2023-10-16T21:37:52.285Z,100.00
2023-10-16T21:40:22.706Z,100.00
2023-10-16T21:42:50.972Z,100.00
2023-10-16T21:45:19.068Z,100.00
2023-10-16T21:47:47.298Z,100.00
2023-10-16T21:50:16.420Z,100.00
2023-10-16T21:52:44.170Z,100.00
2023-10-16T21:55:13.316Z,100.00
2023-10-16T21:57:41.217Z,100.00
2023-10-16T22:00:14.215Z,100.00
2023-10-16T22:02:44.576Z,100.00
2023-10-16T22:05:14.035Z,100.00
2023-10-16T22:07:43.254Z,100.00
2023-10-16T22:10:13.009Z,100.00
2023-10-16T22:12:41.697Z,100.00
2023-10-16T22:15:12.315Z,100.00
2023-10-16T22:17:40.682Z,100.00
2023-10-16T22:20:10.657Z,100.00
2023-10-16T22:22:38.607Z,100.00
2023-10-16T22:25:11.165Z,100.00
2023-10-16T22:27:40.005Z,100.00
2023-10-16T22:30:11.440Z,100.00
2023-10-16T22:32:39.269Z,100.00
2023-10-16T22:35:09.318Z,100.00
2023-10-16T22:37:37.253Z,100.00
2023-10-16T22:40:09.242Z,100.00
2023-10-16T22:42:38.455Z,100.00
2023-10-16T22:45:07.701Z,100.00
2023-10-16T22:47:35.708Z,100.00
2023-10-16T22:50:03.666Z,100.00
2023-10-16T22:52:31.339Z,100.00
2023-10-16T22:55:00.630Z,100.00
2023-10-16T22:57:28.674Z,100.00
2023-10-16T22:59:58.662Z,100.00
2023-10-16T23:02:26.708Z,100.00
2023-10-16T23:04:55.071Z,100.00
2023-10-16T23:07:22.792Z,100.00
2023-10-16T23:09:56.627Z,100.00
2023-10-16T23:12:35.254Z,100.00
2023-10-16T23:15:12.486Z,100.00
2023-10-16T23:17:41.179Z,100.00
2023-10-16T23:20:15.517Z,100.00
2023-10-16T23:22:43.704Z,100.00
2023-10-16T23:25:11.417Z,100.00
2023-10-16T23:27:43.144Z,100.00
2023-10-16T23:30:16.407Z,100.00
2023-10-16T23:32:47.897Z,100.00
2023-10-16T23:35:21.037Z,100.00
2023-10-16T23:37:49.079Z,100.00
2023-10-16T23:40:34.695Z,100.00
2023-10-16T23:43:09.094Z,100.00
2023-10-16T23:45:38.523Z,100.00
2023-10-16T23:48:18.935Z,100.00
2023-10-16T23:50:49.519Z,100.00
2023-10-16T23:53:31.840Z,100.00
2023-10-16T23:56:10.426Z,100.00
2023-10-16T23:58:43.356Z,100.00
